createdAt,value
2019-04-23T00:00:30.105Z,1000.54
2019-04-23T00:02:35.402Z,1000.55
2019-04-23T00:03:38.873Z,1000.51
2019-04-23T00:04:37.091Z,1000.48
2019-04-23T00:06:43.314Z,1000.49
2019-04-23T00:07:51.530Z,1000.47
2019-04-23T00:08:50.189Z,1000.45
2019-04-23T00:09:38.532Z,1000.45
2019-04-23T00:10:34.829Z,1000.43
2019-04-23T00:11:40.964Z,1000.42
2019-04-23T00:12:45.231Z,1000.38
2019-04-23T00:13:44.219Z,1000.38
2019-04-23T00:14:49.505Z,1000.37
2019-04-23T00:15:41.713Z,1000.31
2019-04-23T00:16:42.647Z,1000.32
2019-04-23T00:17:45.190Z,1000.33
2019-04-23T00:18:42.259Z,1000.36
2019-04-23T00:19:41.150Z,1000.31
2019-04-23T00:20:44.287Z,1000.33
2019-04-23T00:21:43.076Z,1000.34
2019-04-23T00:22:44.982Z,1000.34
2019-04-23T00:23:49.184Z,1000.31
2019-04-23T00:25:06.158Z,1000.33
2019-04-23T00:26:53.760Z,1000.27
2019-04-23T00:27:45.896Z,1000.28
2019-04-23T00:28:40.886Z,1000.26
2019-04-23T00:29:46.242Z,1000.21
2019-04-23T00:30:51.515Z,1000.16
2019-04-23T00:31:36.166Z,1000.20
2019-04-23T00:32:40.828Z,1000.17
2019-04-23T00:33:36.108Z,1000.17
2019-04-23T00:34:42.681Z,1000.18
2019-04-23T00:35:38.379Z,1000.14
2019-04-23T00:36:37.788Z,1000.18
2019-04-23T00:37:41.940Z,1000.16
2019-04-23T00:38:41.760Z,1000.14
2019-04-23T00:39:42.440Z,1000.12
2019-04-23T00:40:40.828Z,1000.13
2019-04-23T00:42:41.599Z,1000.11
2019-04-23T00:43:43.284Z,1000.08
2019-04-23T00:44:49.206Z,1000.05
2019-04-23T00:45:59.317Z,1000.03
2019-04-23T00:46:43.450Z,1000.04
2019-04-23T00:47:38.731Z,1000.07
2019-04-23T00:48:42.853Z,1000.01
2019-04-23T00:49:41.453Z,1000.01
2019-04-23T00:50:46.045Z,999.98
2019-04-23T00:51:46.045Z,1000.02
2019-04-23T00:52:38.898Z,999.97
2019-04-23T00:53:38.937Z,999.99
2019-04-23T00:54:46.370Z,999.96
2019-04-23T00:55:44.677Z,999.95
2019-04-23T00:58:54.968Z,999.93
2019-04-23T00:59:44.611Z,999.91
2019-04-23T01:01:49.670Z,999.93
2019-04-23T01:02:46.405Z,999.90
2019-04-23T01:03:40.549Z,999.90
2019-04-23T01:04:41.755Z,999.90
2019-04-23T01:05:52.313Z,999.87
2019-04-23T01:06:39.109Z,999.94
2019-04-23T01:07:40.033Z,999.88
2019-04-23T01:08:41.991Z,999.94
2019-04-23T01:09:47.393Z,999.94
2019-04-23T01:10:45.857Z,999.92
2019-04-23T01:11:39.387Z,999.91
2019-04-23T01:12:46.890Z,999.89
2019-04-23T01:13:43.202Z,999.85
2019-04-23T01:14:38.487Z,999.83
2019-04-23T01:15:46.729Z,999.79
2019-04-23T01:16:37.394Z,999.77
2019-04-23T01:17:49.118Z,999.79
2019-04-23T01:19:37.486Z,999.76
2019-04-23T01:20:44.447Z,999.74
2019-04-23T01:21:19.901Z,999.71
2019-04-23T01:22:19.265Z,999.74
2019-04-23T01:23:21.932Z,999.73
2019-04-23T01:24:23.794Z,999.69
2019-04-23T01:25:28.675Z,999.71
2019-04-23T01:26:34.371Z,999.67
2019-04-23T01:27:53.041Z,999.66
2019-04-23T01:29:42.565Z,999.64
2019-04-23T01:30:52.796Z,999.65
2019-04-23T01:31:47.889Z,999.66
2019-04-23T01:32:48.464Z,999.63
2019-04-23T01:33:48.810Z,999.64
2019-04-23T01:34:52.012Z,999.64
2019-04-23T01:35:59.870Z,999.67
2019-04-23T01:36:41.194Z,999.61
2019-04-23T01:37:41.205Z,999.62
2019-04-23T01:38:49.947Z,999.60
2019-04-23T01:39:43.864Z,999.55
2019-04-23T01:40:40.705Z,999.55
2019-04-23T01:41:50.714Z,999.60
2019-04-23T01:42:44.171Z,999.53
2019-04-23T01:44:52.106Z,999.56
2019-04-23T01:45:37.714Z,999.58
2019-04-23T01:46:50.994Z,999.54
2019-04-23T01:48:50.274Z,999.58
2019-04-23T01:49:53.980Z,999.56
2019-04-23T01:50:48.375Z,999.56
2019-04-23T01:51:48.289Z,999.54
2019-04-23T01:53:45.506Z,999.49
2019-04-23T01:54:45.549Z,999.48
2019-04-23T01:55:49.769Z,999.48
2019-04-23T01:56:45.830Z,999.50
2019-04-23T01:58:46.342Z,999.49
2019-04-23T01:59:45.874Z,999.46
2019-04-23T02:00:47.699Z,999.45
2019-04-23T02:01:58.846Z,999.43
2019-04-23T02:02:51.041Z,999.45
2019-04-23T02:03:48.542Z,999.44
2019-04-23T02:04:45.744Z,999.39
2019-04-23T02:05:48.195Z,999.41
2019-04-23T02:06:45.469Z,999.38
2019-04-23T02:07:50.477Z,999.39
2019-04-23T02:08:47.079Z,999.37
2019-04-23T02:09:48.242Z,999.35
2019-04-23T02:10:55.325Z,999.35
2019-04-23T02:11:48.398Z,999.37
2019-04-23T02:12:53.458Z,999.34
2019-04-23T02:13:53.282Z,999.37
2019-04-23T02:15:47.411Z,999.31
2019-04-23T02:16:42.535Z,999.34
2019-04-23T02:17:52.165Z,999.30
2019-04-23T02:18:49.348Z,999.25
2019-04-23T02:20:47.944Z,999.20
2019-04-23T02:21:55.160Z,999.21
2019-04-23T02:23:01.371Z,999.19
2019-04-23T02:23:44.012Z,999.17
2019-04-23T02:24:49.259Z,999.19
2019-04-23T02:26:46.715Z,999.17
2019-04-23T02:27:54.071Z,999.14
2019-04-23T02:31:57.735Z,999.12
2019-04-23T02:33:01.429Z,999.07
2019-04-23T02:34:12.128Z,999.08
2019-04-23T02:35:02.331Z,999.09
2019-04-23T02:36:57.325Z,999.09
2019-04-23T02:38:00.813Z,999.05
2019-04-23T02:43:59.153Z,999.04
2019-04-23T02:46:04.590Z,999.01
2019-04-23T02:47:03.435Z,999.01
2019-04-23T02:48:08.541Z,998.99
2019-04-23T02:50:12.420Z,998.97
2019-04-23T02:50:48.769Z,998.99
2019-04-23T02:52:03.888Z,998.95
2019-04-23T02:52:56.184Z,998.97
2019-04-23T02:54:19.734Z,998.89
2019-04-23T02:55:08.723Z,998.92
2019-04-23T02:56:51.074Z,998.92
2019-04-23T02:57:50.379Z,998.86
2019-04-23T03:01:15.273Z,998.85
2019-04-23T03:05:13.932Z,998.84
2019-04-23T03:05:49.306Z,998.81
2019-04-23T03:06:55.953Z,998.81
2019-04-23T03:09:56.455Z,998.83
2019-04-23T03:11:04.789Z,998.83
2019-04-23T03:14:07.459Z,998.82
2019-04-23T03:15:00.809Z,998.81
2019-04-23T03:16:04.187Z,998.79
2019-04-23T03:17:57.492Z,998.76
2019-04-23T03:18:58.180Z,998.76
2019-04-23T03:19:59.605Z,998.75
2019-04-23T03:21:09.033Z,998.75
2019-04-23T03:24:57.211Z,998.72
2019-04-23T03:26:13.737Z,998.76
2019-04-23T03:27:46.445Z,998.72
2019-04-23T03:28:57.761Z,998.66
2019-04-23T03:34:19.674Z,998.70
2019-04-23T03:37:58.575Z,998.63
2019-04-23T03:41:10.745Z,998.67
2019-04-23T03:41:53.905Z,998.70
2019-04-23T03:43:01.350Z,998.70
2019-04-23T03:43:51.537Z,998.73
2019-04-23T03:45:00.674Z,998.75
2019-04-23T03:46:15.701Z,998.71
2019-04-23T03:46:51.456Z,998.73
2019-04-23T03:47:56.104Z,998.74
2019-04-23T03:50:02.536Z,998.72
2019-04-23T03:50:43.963Z,998.71
2019-04-23T03:52:44.903Z,998.71
2019-04-23T03:54:10.054Z,998.71
2019-04-23T03:56:05.178Z,998.67
2019-04-23T03:57:06.058Z,998.67
2019-04-23T03:57:52.589Z,998.66
2019-04-23T03:59:11.331Z,998.63
2019-04-23T04:00:20.665Z,998.67
2019-04-23T04:00:58.084Z,998.66
2019-04-23T04:02:00.603Z,998.64
2019-04-23T04:04:49.795Z,998.64
2019-04-23T04:06:03.770Z,998.62
2019-04-23T04:11:09.914Z,998.65
2019-04-23T04:12:00.967Z,998.64
2019-04-23T04:12:45.672Z,998.65
2019-04-23T04:14:00.948Z,998.63
2019-04-23T04:19:56.899Z,998.62
2019-04-23T04:21:01.072Z,998.61
2019-04-23T04:21:58.551Z,998.65
2019-04-23T04:23:19.567Z,998.65
2019-04-23T04:24:03.223Z,998.60
2019-04-23T04:24:48.176Z,998.63
2019-04-23T04:27:01.802Z,998.62
2019-04-23T04:28:07.997Z,998.67
2019-04-23T04:31:52.287Z,998.61
2019-04-23T04:33:17.836Z,998.62
2019-04-23T04:34:11.844Z,998.63
2019-04-23T04:35:58.400Z,998.62
2019-04-23T04:38:54.321Z,998.61
2019-04-23T04:41:03.021Z,998.63
2019-04-23T04:41:57.060Z,998.59
2019-04-23T04:43:06.722Z,998.60
2019-04-23T04:44:05.300Z,998.63
2019-04-23T04:45:14.242Z,998.64
2019-04-23T04:46:15.006Z,998.59
2019-04-23T04:47:15.236Z,998.64
2019-04-23T04:48:55.827Z,998.61
2019-04-23T04:51:00.063Z,998.65
2019-04-23T04:52:22.643Z,998.66
2019-04-23T04:52:57.950Z,998.58
2019-04-23T04:54:00.868Z,998.61
2019-04-23T04:54:49.777Z,998.57
2019-04-23T04:57:00.390Z,998.57
2019-04-23T04:57:58.113Z,998.58
2019-04-23T04:59:08.901Z,998.55
2019-04-23T05:00:05.735Z,998.56
2019-04-23T05:01:58.539Z,998.56
2019-04-23T05:03:17.931Z,998.57
2019-04-23T05:03:45.838Z,998.52
2019-04-23T05:05:33.025Z,998.51
2019-04-23T05:06:22.635Z,998.57
2019-04-23T05:07:02.230Z,998.55
2019-04-23T05:11:00.314Z,998.61
2019-04-23T05:12:01.090Z,998.57
2019-04-23T05:13:08.988Z,998.60
2019-04-23T05:14:00.094Z,998.59
2019-04-23T05:14:58.684Z,998.58
2019-04-23T05:15:50.147Z,998.56
2019-04-23T05:17:59.991Z,998.58
2019-04-23T05:18:58.062Z,998.59
2019-04-23T05:19:51.227Z,998.60
2019-04-23T05:20:58.087Z,998.56
2019-04-23T05:22:06.549Z,998.57
2019-04-23T05:23:02.761Z,998.55
2019-04-23T05:23:54.474Z,998.57
2019-04-23T05:24:48.585Z,998.57
2019-04-23T05:25:49.677Z,998.54
2019-04-23T05:26:59.298Z,998.57
2019-04-23T05:29:01.877Z,998.60
2019-04-23T05:29:54.323Z,998.55
2019-04-23T05:30:57.553Z,998.56
2019-04-23T05:31:47.006Z,998.61
2019-04-23T05:32:53.697Z,998.52
2019-04-23T05:33:57.236Z,998.56
2019-04-23T05:34:54.104Z,998.50
2019-04-23T05:39:56.699Z,998.49
2019-04-23T05:40:53.761Z,998.49
2019-04-23T05:41:53.766Z,998.52
2019-04-23T05:42:56.419Z,998.51
2019-04-23T05:43:57.454Z,998.48
2019-04-23T05:44:55.746Z,998.47
2019-04-23T05:45:53.144Z,998.49
2019-04-23T05:46:52.248Z,998.49
2019-04-23T05:48:54.469Z,998.42
2019-04-23T05:49:54.663Z,998.49
2019-04-23T05:50:58.836Z,998.41
2019-04-23T05:52:52.810Z,998.39
2019-04-23T05:53:51.187Z,998.44
2019-04-23T05:54:56.270Z,998.39
2019-04-23T05:55:55.421Z,998.38
2019-04-23T05:57:00.269Z,998.36
2019-04-23T05:57:52.026Z,998.37
2019-04-23T05:58:53.136Z,998.36
2019-04-23T05:59:53.244Z,998.32
2019-04-23T06:00:59.349Z,998.36
2019-04-23T06:02:56.628Z,998.31
2019-04-23T06:03:56.484Z,998.32
2019-04-23T06:04:49.545Z,998.33
2019-04-23T06:06:01.145Z,998.34
2019-04-23T06:08:12.050Z,998.36
2019-04-23T06:08:55.886Z,998.32
2019-04-23T06:09:54.953Z,998.28
2019-04-23T06:11:00.837Z,998.30
2019-04-23T06:12:52.133Z,998.30
2019-04-23T06:14:00.241Z,998.30
2019-04-23T06:14:54.073Z,998.34
2019-04-23T06:15:54.080Z,998.32
2019-04-23T06:17:02.102Z,998.34
2019-04-23T06:17:55.902Z,998.34
2019-04-23T06:18:59.262Z,998.35
2019-04-23T06:19:53.022Z,998.26
2019-04-23T06:21:00.905Z,998.28
2019-04-23T06:21:57.860Z,998.27
2019-04-23T06:22:56.122Z,998.30
2019-04-23T06:23:56.174Z,998.31
2019-04-23T06:26:54.315Z,998.25
2019-04-23T06:27:54.452Z,998.27
2019-04-23T06:28:50.794Z,998.24
2019-04-23T06:29:54.250Z,998.20
2019-04-23T06:31:54.016Z,998.23
2019-04-23T06:32:51.392Z,998.15
2019-04-23T06:33:57.153Z,998.14
2019-04-23T06:35:50.381Z,998.17
2019-04-23T06:36:51.216Z,998.09
2019-04-23T06:39:51.299Z,998.08
2019-04-23T06:40:54.308Z,998.07
2019-04-23T06:42:54.718Z,998.12
2019-04-23T06:43:58.428Z,998.07
2019-04-23T06:44:54.902Z,998.10
2019-04-23T06:45:54.800Z,998.06
2019-04-23T06:47:56.019Z,998.02
2019-04-23T06:48:47.242Z,998.06
2019-04-23T06:49:51.527Z,998.10
2019-04-23T06:50:59.418Z,998.03
2019-04-23T06:52:00.926Z,998.04
2019-04-23T06:52:50.141Z,997.99
2019-04-23T06:53:55.112Z,997.97
2019-04-23T06:54:55.991Z,998.01
2019-04-23T06:57:02.231Z,997.98
2019-04-23T06:57:51.055Z,997.94
2019-04-23T06:58:48.956Z,997.91
2019-04-23T06:59:52.672Z,997.93
2019-04-23T07:00:58.729Z,997.91
2019-04-23T07:01:59.396Z,997.91
2019-04-23T07:02:55.270Z,997.92
2019-04-23T07:03:56.972Z,997.95
2019-04-23T07:04:56.908Z,997.91
2019-04-23T07:06:03.450Z,997.91
2019-04-23T07:08:00.889Z,997.86
2019-04-23T07:09:09.639Z,997.80
2019-04-23T07:09:54.014Z,997.79
2019-04-23T07:10:57.984Z,997.80
2019-04-23T07:11:47.530Z,997.83
2019-04-23T07:13:58.799Z,997.79
2019-04-23T07:16:07.758Z,997.76
2019-04-23T07:16:54.489Z,997.74
2019-04-23T07:17:51.246Z,997.73
2019-04-23T07:19:12.754Z,997.72
2019-04-23T07:19:48.383Z,997.77
2019-04-23T07:20:49.341Z,997.74
2019-04-23T07:22:04.732Z,997.79
2019-04-23T07:22:58.178Z,997.75
2019-04-23T07:24:00.322Z,997.70
2019-04-23T07:24:54.130Z,997.76
2019-04-23T07:25:59.821Z,997.67
2019-04-23T07:26:43.060Z,997.61
2019-04-23T07:27:51.323Z,997.63
2019-04-23T07:28:53.328Z,997.70
2019-04-23T07:29:58.123Z,997.62
2019-04-23T07:31:07.363Z,997.71
2019-04-23T07:31:54.692Z,997.61
2019-04-23T07:32:56.720Z,997.55
2019-04-23T07:33:55.777Z,997.58
2019-04-23T07:34:49.545Z,997.52
2019-04-23T07:35:51.803Z,997.49
2019-04-23T07:36:53.711Z,997.50
2019-04-23T07:38:01.811Z,997.47
2019-04-23T07:39:09.819Z,997.52
2019-04-23T07:40:12.980Z,997.44
2019-04-23T07:40:50.101Z,997.43
2019-04-23T07:42:51.208Z,997.39
2019-04-23T07:43:54.784Z,997.38
2019-04-23T07:44:56.435Z,997.39
2019-04-23T07:45:54.840Z,997.35
2019-04-23T07:47:03.081Z,997.31
2019-04-23T07:48:02.044Z,997.33
2019-04-23T07:48:47.969Z,997.36
2019-04-23T07:50:05.153Z,997.27
2019-04-23T07:52:01.273Z,997.22
2019-04-23T07:53:00.234Z,997.29
2019-04-23T07:55:02.383Z,997.20
2019-04-23T07:55:56.890Z,997.21
2019-04-23T07:57:02.958Z,997.23
2019-04-23T07:58:03.080Z,997.25
2019-04-23T07:58:58.360Z,997.18
2019-04-23T07:59:56.270Z,997.19
2019-04-23T08:01:04.778Z,997.20
2019-04-23T08:01:57.453Z,997.13
2019-04-23T08:03:03.467Z,997.22
2019-04-23T08:03:55.880Z,997.24
2019-04-23T08:05:06.328Z,997.19
2019-04-23T08:05:49.514Z,997.19
2019-04-23T08:06:57.795Z,997.22
2019-04-23T08:07:58.882Z,997.26
2019-04-23T08:09:09.086Z,997.14
2019-04-23T08:09:53.287Z,997.15
2019-04-23T08:11:16.405Z,997.15
2019-04-23T08:12:07.916Z,997.21
2019-04-23T08:12:56.242Z,997.22
2019-04-23T08:15:02.268Z,997.16
2019-04-23T08:15:57.429Z,997.13
2019-04-23T08:16:58.128Z,997.19
2019-04-23T08:17:53.091Z,997.09
2019-04-23T08:18:55.741Z,997.16
2019-04-23T08:20:02.049Z,997.06
2019-04-23T08:21:10.539Z,997.15
2019-04-23T08:22:02.496Z,997.10
2019-04-23T08:22:53.794Z,997.10
2019-04-23T08:23:56.948Z,997.03
2019-04-23T08:24:57.417Z,997.05
2019-04-23T08:26:02.864Z,997.04
2019-04-23T08:26:55.101Z,997.00
2019-04-23T08:27:48.662Z,997.03
2019-04-23T08:29:03.635Z,997.02
2019-04-23T08:29:47.821Z,996.96
2019-04-23T08:30:53.069Z,997.06
2019-04-23T08:32:57.608Z,996.94
2019-04-23T08:33:57.432Z,996.93
2019-04-23T08:34:58.386Z,996.93
2019-04-23T08:35:57.652Z,996.94
2019-04-23T08:37:00.064Z,996.81
2019-04-23T08:38:11.672Z,996.91
2019-04-23T08:38:51.087Z,996.88
2019-04-23T08:41:04.449Z,996.90
2019-04-23T08:42:03.610Z,996.89
2019-04-23T08:42:58.893Z,996.90
2019-04-23T08:43:59.421Z,996.89
2019-04-23T08:45:07.109Z,996.88
2019-04-23T08:45:52.508Z,996.79
2019-04-23T08:48:00.699Z,996.80
2019-04-23T08:48:57.551Z,996.82
2019-04-23T08:49:50.571Z,996.80
2019-04-23T08:50:54.558Z,996.84
2019-04-23T08:52:00.238Z,996.70
2019-04-23T08:53:03.774Z,996.72
2019-04-23T08:53:56.904Z,996.69
2019-04-23T08:55:10.114Z,996.71
2019-04-23T08:57:04.026Z,996.66
2019-04-23T08:57:47.078Z,996.67
2019-04-23T08:58:57.662Z,996.60
2019-04-23T09:02:03.658Z,996.62
2019-04-23T09:03:06.213Z,996.61
2019-04-23T09:03:52.748Z,996.62
2019-04-23T09:07:04.514Z,996.63
2019-04-23T09:07:59.916Z,996.62
2019-04-23T09:08:49.939Z,996.54
2019-04-23T09:09:56.685Z,996.63
2019-04-23T09:11:06.751Z,996.52
2019-04-23T09:11:55.856Z,996.50
2019-04-23T09:13:09.564Z,996.56
2019-04-23T09:15:16.770Z,996.48
2019-04-23T09:15:56.229Z,996.52
2019-04-23T09:16:58.400Z,996.49
2019-04-23T09:17:56.319Z,996.39
2019-04-23T09:18:52.782Z,996.38
2019-04-23T09:20:11.797Z,996.18
2019-04-23T09:20:48.005Z,996.35
2019-04-23T09:22:03.309Z,996.39
2019-04-23T09:22:50.116Z,996.30
2019-04-23T09:23:56.242Z,996.18
2019-04-23T09:24:55.573Z,996.16
2019-04-23T09:25:54.406Z,996.18
2019-04-23T09:27:01.954Z,996.21
2019-04-23T09:28:03.391Z,996.10
2019-04-23T09:30:00.072Z,996.14
2019-04-23T09:30:57.820Z,996.08
2019-04-23T09:32:14.806Z,996.10
2019-04-23T09:33:00.860Z,996.11
2019-04-23T09:33:58.648Z,996.07
2019-04-23T09:35:06.233Z,996.06
2019-04-23T09:35:57.417Z,996.08
2019-04-23T09:36:59.809Z,996.09
2019-04-23T09:37:58.453Z,996.09
2019-04-23T09:39:59.519Z,996.15
2019-04-23T09:41:09.899Z,996.10
2019-04-23T09:41:51.778Z,996.16
2019-04-23T09:43:55.652Z,996.05
2019-04-23T09:44:58.498Z,996.00
2019-04-23T09:45:59.781Z,996.10
2019-04-23T09:47:01.946Z,996.10
2019-04-23T09:47:57.289Z,995.96
2019-04-23T09:49:13.444Z,995.97
2019-04-23T09:49:56.837Z,996.02
2019-04-23T09:50:57.220Z,995.89
2019-04-23T09:52:00.815Z,995.88
2019-04-23T09:53:04.947Z,995.91
2019-04-23T09:54:01.004Z,995.81
2019-04-23T09:55:16.232Z,995.96
2019-04-23T09:55:45.519Z,996.02
2019-04-23T09:56:54.081Z,995.88
2019-04-23T09:58:11.787Z,995.91
2019-04-23T09:59:58.228Z,995.83
2019-04-23T10:00:56.144Z,995.86
2019-04-23T10:01:45.250Z,995.86
2019-04-23T10:02:45.670Z,995.85
2019-04-23T10:03:44.066Z,995.83
2019-04-23T10:04:44.953Z,995.79
2019-04-23T10:05:39.888Z,995.78
2019-04-23T10:06:33.426Z,995.78
2019-04-23T10:07:41.836Z,995.74
2019-04-23T10:08:35.566Z,995.74
2019-04-23T10:09:30.066Z,995.80
2019-04-23T10:10:30.283Z,995.77
2019-04-23T10:11:30.508Z,995.77
2019-04-23T10:12:30.253Z,995.86
2019-04-23T10:13:29.666Z,995.73
2019-04-23T10:14:30.459Z,995.69
2019-04-23T10:15:35.005Z,995.83
2019-04-23T10:16:32.435Z,995.77
2019-04-23T10:17:29.246Z,995.77
2019-04-23T10:18:29.283Z,995.67
2019-04-23T10:19:30.665Z,995.87
2019-04-23T10:20:30.790Z,995.63
2019-04-23T10:21:29.389Z,995.63
2019-04-23T10:22:32.293Z,995.69
2019-04-23T10:23:29.584Z,995.61
2019-04-23T10:24:30.822Z,995.64
2019-04-23T10:25:30.157Z,995.64
2019-04-23T10:26:30.249Z,995.56
2019-04-23T10:27:29.565Z,995.55
2019-04-23T10:28:29.717Z,995.66
2019-04-23T10:29:29.904Z,995.56
2019-04-23T10:30:30.943Z,995.61
2019-04-23T10:31:29.598Z,995.60
2019-04-23T10:32:29.856Z,995.49
2019-04-23T10:33:29.715Z,995.47
2019-04-23T10:34:42.259Z,995.43
2019-04-23T10:35:39.455Z,995.35
2019-04-23T10:36:30.507Z,995.51
2019-04-23T10:37:36.711Z,995.44
2019-04-23T10:38:30.735Z,995.39
2019-04-23T10:39:35.142Z,995.47
2019-04-23T10:40:35.843Z,995.44
2019-04-23T10:41:30.655Z,995.44
2019-04-23T10:42:32.078Z,995.41
2019-04-23T10:43:31.518Z,995.44
2019-04-23T10:44:31.185Z,995.47
2019-04-23T10:45:50.245Z,995.46
2019-04-23T10:46:53.751Z,995.41
2019-04-23T10:48:07.405Z,995.40
2019-04-23T10:49:18.082Z,995.32
2019-04-23T10:52:17.048Z,995.38
2019-04-23T10:53:02.157Z,995.47
2019-04-23T10:54:02.868Z,995.34
2019-04-23T10:55:22.322Z,995.39
2019-04-23T10:57:12.841Z,995.32
2019-04-23T10:57:54.122Z,995.33
2019-04-23T10:59:01.823Z,995.27
2019-04-23T11:00:09.174Z,995.22
2019-04-23T11:00:59.843Z,995.30
2019-04-23T11:02:15.732Z,995.22
2019-04-23T11:03:02.175Z,995.28
2019-04-23T11:04:10.714Z,995.27
2019-04-23T11:07:12.970Z,995.21
2019-04-23T11:07:47.472Z,995.25
2019-04-23T11:09:08.295Z,995.28
2019-04-23T11:10:58.623Z,995.20
2019-04-23T11:12:03.786Z,995.28
2019-04-23T11:13:00.795Z,995.20
2019-04-23T11:14:05.410Z,995.20
2019-04-23T11:15:09.264Z,995.24
2019-04-23T11:16:37.106Z,995.39
2019-04-23T11:17:15.629Z,995.17
2019-04-23T11:17:52.453Z,995.11
2019-04-23T11:19:07.389Z,995.13
2019-04-23T11:20:06.814Z,995.19
2019-04-23T11:20:59.387Z,995.24
2019-04-23T11:22:24.457Z,995.16
2019-04-23T11:23:08.981Z,995.06
2019-04-23T11:24:00.069Z,995.08
2019-04-23T11:25:02.147Z,995.10
2019-04-23T11:25:55.853Z,995.15
2019-04-23T11:27:01.913Z,995.15
2019-04-23T11:29:01.975Z,995.08
2019-04-23T11:30:11.902Z,995.12
2019-04-23T11:32:13.079Z,995.11
2019-04-23T11:34:10.686Z,995.14
2019-04-23T11:35:11.459Z,995.10
2019-04-23T11:36:18.959Z,995.08
2019-04-23T11:37:03.883Z,995.07
2019-04-23T11:37:58.722Z,995.15
2019-04-23T11:38:22.011Z,995.06
2019-04-23T11:40:01.101Z,995.09
2019-04-23T11:40:59.932Z,995.02
2019-04-23T11:43:09.093Z,994.97
2019-04-23T11:44:09.821Z,995.06
2019-04-23T11:45:06.841Z,994.98
2019-04-23T11:47:41.677Z,994.95
2019-04-23T11:48:33.996Z,995.00
2019-04-23T11:49:22.286Z,994.94
2019-04-23T11:52:19.348Z,994.96
2019-04-23T11:53:20.448Z,994.95
2019-04-23T11:54:03.803Z,994.99
2019-04-23T11:55:05.253Z,994.95
2019-04-23T11:58:07.665Z,994.95
2019-04-23T11:59:27.478Z,994.94
2019-04-23T11:59:59.026Z,994.89
2019-04-23T12:01:10.965Z,994.88
2019-04-23T12:02:12.125Z,994.94
2019-04-23T12:02:57.483Z,994.93
2019-04-23T12:04:12.745Z,994.88
2019-04-23T12:06:07.894Z,994.89
2019-04-23T12:07:03.736Z,994.87
2019-04-23T12:07:57.652Z,994.89
2019-04-23T12:08:57.214Z,994.90
2019-04-23T12:10:07.277Z,994.91
2019-04-23T12:11:35.472Z,994.80
2019-04-23T12:12:18.866Z,994.87
2019-04-23T12:13:07.888Z,994.90
2019-04-23T12:14:15.458Z,994.89
2019-04-23T12:15:05.762Z,994.84
2019-04-23T12:16:06.598Z,994.79
2019-04-23T12:17:18.556Z,994.84
2019-04-23T12:18:05.385Z,994.82
2019-04-23T12:19:28.735Z,994.78
2019-04-23T12:20:07.972Z,994.76
2019-04-23T12:20:56.842Z,994.71
2019-04-23T12:23:25.398Z,994.67
2019-04-23T12:24:10.264Z,994.64
2019-04-23T12:26:06.600Z,994.69
2019-04-23T12:27:47.046Z,994.60
2019-04-23T12:28:57.764Z,994.61
2019-04-23T12:30:00.782Z,994.53
2019-04-23T12:31:00.812Z,994.61
2019-04-23T12:32:14.231Z,994.58
2019-04-23T12:33:20.334Z,994.52
2019-04-23T12:36:10.269Z,994.65
2019-04-23T12:37:09.543Z,994.57
2019-04-23T12:38:04.175Z,994.54
2019-04-23T12:39:08.794Z,994.57
2019-04-23T12:40:06.059Z,994.59
2019-04-23T12:40:55.815Z,994.55
2019-04-23T12:41:52.754Z,994.58
2019-04-23T12:43:57.520Z,994.57
2019-04-23T12:45:03.476Z,994.56
2019-04-23T12:45:57.411Z,994.55
2019-04-23T12:47:05.539Z,994.57
2019-04-23T12:49:22.152Z,994.54
2019-04-23T12:50:31.042Z,994.55
2019-04-23T12:51:17.394Z,994.47
2019-04-23T12:52:02.402Z,994.42
2019-04-23T12:53:24.360Z,994.35
2019-04-23T12:53:59.427Z,994.35
2019-04-23T12:55:08.596Z,994.38
2019-04-23T12:56:03.709Z,994.38
2019-04-23T12:57:17.507Z,994.38
2019-04-23T12:58:01.216Z,994.39
2019-04-23T12:58:56.349Z,994.41
2019-04-23T13:01:05.241Z,994.34
2019-04-23T13:02:05.316Z,994.25
2019-04-23T13:02:58.844Z,994.29
2019-04-23T13:03:59.607Z,994.29
2019-04-23T13:05:00.302Z,994.21
2019-04-23T13:05:55.475Z,994.29
2019-04-23T13:06:57.484Z,994.19
2019-04-23T13:08:05.787Z,994.18
2019-04-23T13:09:05.456Z,994.28
2019-04-23T13:10:01.594Z,994.26
2019-04-23T13:10:57.409Z,994.22
2019-04-23T13:12:03.573Z,994.22
2019-04-23T13:13:11.421Z,994.23
2019-04-23T13:14:07.004Z,994.26
2019-04-23T13:15:05.308Z,994.25
2019-04-23T13:16:08.795Z,994.23
2019-04-23T13:19:03.571Z,994.16
2019-04-23T13:20:03.768Z,994.18
2019-04-23T13:20:58.510Z,994.15
2019-04-23T13:23:08.574Z,994.19
2019-04-23T13:23:55.570Z,994.14
2019-04-23T13:25:01.963Z,994.23
2019-04-23T13:26:00.910Z,994.16
2019-04-23T13:27:04.349Z,994.24
2019-04-23T13:29:03.153Z,994.18
2019-04-23T13:31:57.989Z,994.12
2019-04-23T13:33:13.198Z,994.07
2019-04-23T13:33:58.635Z,994.11
2019-04-23T13:35:15.052Z,994.13
2019-04-23T13:37:07.875Z,994.10
2019-04-23T13:38:10.412Z,994.11
2019-04-23T13:39:02.378Z,994.11
2019-04-23T13:39:58.313Z,994.17
2019-04-23T13:42:06.049Z,994.09
2019-04-23T13:43:14.425Z,994.08
2019-04-23T13:43:53.245Z,994.05
2019-04-23T13:45:07.039Z,994.05
2019-04-23T13:46:09.922Z,994.01
2019-04-23T13:47:12.989Z,993.98
2019-04-23T13:49:01.722Z,993.95
2019-04-23T13:50:10.010Z,993.91
2019-04-23T13:51:07.251Z,993.98
2019-04-23T13:52:19.787Z,993.98
2019-04-23T13:54:01.718Z,993.95
2019-04-23T13:56:04.024Z,993.97
2019-04-23T13:57:33.435Z,993.94
2019-04-23T13:59:07.024Z,993.86
2019-04-23T14:00:32.322Z,993.90
2019-04-23T14:01:07.405Z,993.85
2019-04-23T14:02:08.976Z,993.91
2019-04-23T14:03:04.003Z,993.91
2019-04-23T14:04:05.794Z,993.92
2019-04-23T14:06:09.394Z,993.91
2019-04-23T14:07:10.760Z,993.83
2019-04-23T14:08:24.624Z,993.85
2019-04-23T14:09:17.021Z,993.86
2019-04-23T14:11:05.472Z,993.83
2019-04-23T14:12:04.380Z,993.80
2019-04-23T14:13:28.489Z,993.80
2019-04-23T14:14:08.215Z,993.85
2019-04-23T14:15:04.483Z,993.77
2019-04-23T14:16:04.575Z,993.82
2019-04-23T14:17:15.260Z,993.75
2019-04-23T14:18:29.351Z,993.73
2019-04-23T14:19:04.713Z,993.81
2019-04-23T14:20:09.962Z,993.74
2019-04-23T14:21:06.538Z,993.75
2019-04-23T14:22:21.068Z,993.77
2019-04-23T14:26:25.820Z,993.73
2019-04-23T14:27:08.884Z,993.72
2019-04-23T14:28:16.103Z,993.74
2019-04-23T14:29:02.110Z,993.74
2019-04-23T14:31:05.947Z,993.71
2019-04-23T14:32:10.542Z,993.73
2019-04-23T14:33:15.416Z,993.76
2019-04-23T14:34:04.824Z,993.75
2019-04-23T14:35:12.926Z,993.71
2019-04-23T14:36:22.898Z,993.71
2019-04-23T14:37:09.610Z,993.72
2019-04-23T14:40:01.553Z,993.75
2019-04-23T14:41:14.940Z,993.76
2019-04-23T14:45:23.214Z,993.73
2019-04-23T14:47:07.086Z,993.69
2019-04-23T14:48:10.357Z,993.70
2019-04-23T14:49:05.487Z,993.70
2019-04-23T14:50:24.664Z,993.69
2019-04-23T14:52:06.732Z,993.67
2019-04-23T14:53:13.055Z,993.71
2019-04-23T14:54:23.391Z,993.68
2019-04-23T14:57:13.190Z,993.65
2019-04-23T14:58:25.452Z,993.68
2019-04-23T14:59:07.837Z,993.65
2019-04-23T15:00:09.483Z,993.72
2019-04-23T15:01:16.030Z,993.65
2019-04-23T15:02:07.444Z,993.57
2019-04-23T15:03:18.005Z,993.62
2019-04-23T15:04:20.512Z,993.56
2019-04-23T15:05:09.574Z,993.55
2019-04-23T15:07:08.231Z,993.50
2019-04-23T15:08:06.277Z,993.51
2019-04-23T15:10:10.526Z,993.51
2019-04-23T15:12:11.830Z,993.49
2019-04-23T15:13:12.501Z,993.44
2019-04-23T15:14:01.454Z,993.40
2019-04-23T15:15:21.233Z,993.43
2019-04-23T15:17:07.676Z,993.42
2019-04-23T15:18:09.403Z,993.45
2019-04-23T15:19:11.012Z,993.40
2019-04-23T15:20:03.014Z,993.39
2019-04-23T15:21:27.774Z,993.41
2019-04-23T15:22:12.511Z,993.41
2019-04-23T15:23:32.969Z,993.35